createdAt,value
2023-05-14T00:01:17.963Z,9.67
2023-05-14T00:03:46.777Z,12.03
2023-05-14T00:06:14.266Z,9.73
2023-05-14T00:08:41.709Z,10.13
2023-05-14T00:11:09.888Z,14.47
2023-05-14T00:13:37.634Z,21.00
2023-05-14T00:16:05.478Z,19.30
2023-05-14T00:18:33.547Z,40.20
2023-05-14T00:21:02.336Z,24.03
2023-05-14T00:23:29.847Z,14.93
2023-05-14T00:25:57.281Z,10.43
2023-05-14T00:28:24.683Z,13.60
2023-05-14T00:30:52.614Z,26.93
2023-05-14T00:33:20.038Z,26.03
2023-05-14T00:35:47.525Z,18.40
2023-05-14T00:38:19.317Z,30.10
2023-05-14T00:40:51.257Z,26.03
2023-05-14T00:43:19.234Z,25.77
2023-05-14T00:45:47.129Z,22.10
2023-05-14T00:48:14.859Z,22.57
2023-05-14T00:50:42.817Z,26.07
2023-05-14T00:53:11.443Z,17.47
2023-05-14T00:55:42.765Z,16.40
2023-05-14T00:58:11.967Z,14.80
2023-05-14T01:00:41.164Z,27.87
2023-05-14T01:03:09.566Z,13.73
2023-05-14T01:05:44.841Z,18.57
2023-05-14T01:08:20.120Z,17.70
2023-05-14T01:10:53.487Z,26.23
2023-05-14T01:13:28.317Z,32.20
2023-05-14T01:15:59.291Z,30.33
2023-05-14T01:18:29.474Z,36.77
2023-05-14T01:20:56.908Z,16.57
2023-05-14T01:23:25.745Z,9.40
2023-05-14T01:25:53.173Z,9.00
2023-05-14T01:28:26.210Z,11.07
2023-05-14T01:30:57.843Z,13.20
2023-05-14T01:33:28.537Z,11.13
2023-05-14T01:35:56.627Z,11.93
2023-05-14T01:38:27.558Z,10.13
2023-05-14T01:40:56.134Z,8.00
2023-05-14T01:43:24.126Z,7.87
2023-05-14T01:45:51.635Z,9.17
2023-05-14T01:48:19.096Z,7.70
2023-05-14T01:50:46.518Z,8.10
2023-05-14T01:53:14.059Z,10.73
2023-05-14T01:55:42.781Z,15.37
2023-05-14T01:58:10.236Z,16.23
2023-05-14T02:00:38.258Z,13.77
2023-05-14T02:03:05.950Z,7.27
2023-05-14T02:05:33.410Z,9.27
2023-05-14T02:08:01.099Z,8.87
2023-05-14T02:10:28.650Z,8.23
2023-05-14T02:12:57.381Z,6.83
2023-05-14T02:15:24.844Z,8.33
2023-05-14T02:17:52.255Z,8.47
2023-05-14T02:20:19.718Z,16.10
2023-05-14T02:22:47.129Z,7.73
2023-05-14T02:25:14.579Z,12.70
2023-05-14T02:27:42.109Z,10.63
2023-05-14T02:30:12.629Z,11.33
2023-05-14T02:32:40.174Z,10.23
2023-05-14T02:35:08.442Z,7.13
2023-05-14T02:37:35.890Z,6.23
2023-05-14T02:40:04.386Z,6.83
2023-05-14T02:42:32.283Z,7.37
2023-05-14T02:44:59.707Z,6.60
2023-05-14T02:47:28.471Z,7.30
2023-05-14T02:49:55.920Z,6.37
2023-05-14T02:52:23.344Z,6.83
2023-05-14T02:54:50.765Z,6.83
2023-05-14T02:57:18.200Z,6.50
2023-05-14T02:59:45.585Z,6.70
2023-05-14T03:02:13.567Z,7.83
2023-05-14T03:04:42.745Z,7.27
2023-05-14T03:07:10.180Z,7.93
2023-05-14T03:09:38.367Z,9.20
2023-05-14T03:12:06.670Z,6.33
2023-05-14T03:14:34.116Z,6.80
2023-05-14T03:17:01.702Z,7.50
2023-05-14T03:19:29.143Z,7.23
2023-05-14T03:21:57.885Z,6.43
2023-05-14T03:24:25.294Z,9.73
2023-05-14T03:26:53.287Z,6.20
2023-05-14T03:29:20.688Z,10.97
2023-05-14T03:31:48.120Z,7.73
2023-05-14T03:34:15.525Z,11.90
2023-05-14T03:36:43.030Z,9.07
2023-05-14T03:39:11.739Z,8.03
2023-05-14T03:41:39.303Z,6.30
2023-05-14T03:44:06.718Z,8.30
2023-05-14T03:46:34.135Z,7.43
2023-05-14T03:49:01.676Z,7.73
2023-05-14T03:51:29.216Z,8.23
2023-05-14T03:53:57.986Z,6.73
2023-05-14T03:56:26.981Z,7.33
2023-05-14T03:58:54.714Z,9.20
2023-05-14T04:01:22.143Z,8.17
2023-05-14T04:03:49.737Z,6.23
2023-05-14T04:06:17.220Z,6.00
2023-05-14T04:08:44.648Z,6.80
2023-05-14T04:11:12.135Z,7.63
2023-05-14T04:13:40.850Z,7.50
2023-05-14T04:16:08.430Z,7.50
2023-05-14T04:18:36.023Z,5.67
2023-05-14T04:21:03.782Z,7.33
2023-05-14T04:23:31.768Z,9.37
2023-05-14T04:25:59.289Z,8.37
2023-05-14T04:28:26.702Z,6.50
2023-05-14T04:30:55.492Z,8.43
2023-05-14T04:33:22.908Z,8.87
2023-05-14T04:35:50.307Z,9.40
2023-05-14T04:38:17.715Z,8.33
2023-05-14T04:40:45.121Z,7.67
2023-05-14T04:43:12.548Z,7.40
2023-05-14T04:45:40.935Z,6.60
2023-05-14T04:48:09.826Z,7.03
2023-05-14T04:50:37.313Z,7.10
2023-05-14T04:53:04.731Z,5.73
2023-05-14T04:55:32.362Z,9.13
2023-05-14T04:57:59.816Z,5.80
2023-05-14T05:00:27.397Z,5.73
2023-05-14T05:02:55.002Z,9.87
2023-05-14T05:05:24.601Z,7.27
2023-05-14T05:07:52.073Z,7.77
2023-05-14T05:10:19.518Z,10.67
2023-05-14T05:12:46.965Z,5.63
2023-05-14T05:15:14.382Z,5.53
2023-05-14T05:17:41.958Z,7.00
2023-05-14T05:20:10.408Z,7.67
2023-05-14T05:22:39.179Z,5.10
2023-05-14T05:25:08.081Z,5.67
2023-05-14T05:27:35.564Z,6.83
2023-05-14T05:30:03.942Z,6.63
2023-05-14T05:32:31.924Z,4.90
2023-05-14T05:34:59.433Z,5.83
2023-05-14T05:37:26.991Z,6.90
2023-05-14T05:39:55.736Z,9.57
2023-05-14T05:42:23.446Z,6.88
2023-05-14T05:44:50.824Z,7.13
2023-05-14T05:47:18.395Z,7.10
2023-05-14T05:49:45.819Z,5.57
2023-05-14T05:52:13.376Z,7.32
2023-05-14T05:54:40.805Z,7.63
2023-05-14T05:57:09.590Z,5.57
2023-05-14T05:59:37.300Z,6.83
2023-05-14T06:02:05.083Z,7.60
2023-05-14T06:04:32.588Z,5.37
2023-05-14T06:07:00.052Z,5.23
2023-05-14T06:09:27.475Z,6.90
2023-05-14T06:11:54.888Z,10.43
2023-05-14T06:14:23.678Z,8.47
2023-05-14T06:16:51.114Z,8.57
2023-05-14T06:19:18.714Z,6.03
2023-05-14T06:21:46.258Z,6.47
2023-05-14T06:24:13.963Z,8.70
2023-05-14T06:26:41.352Z,7.83
2023-05-14T06:29:08.772Z,7.50
2023-05-14T06:31:37.568Z,6.00
2023-05-14T06:34:05.026Z,7.47
2023-05-14T06:36:32.424Z,6.30
2023-05-14T06:38:59.832Z,5.20
2023-05-14T06:41:27.262Z,9.00
2023-05-14T06:43:55.238Z,5.10
2023-05-14T06:46:22.828Z,5.87
2023-05-14T06:48:51.573Z,5.67
2023-05-14T06:51:19.025Z,6.03
2023-05-14T06:53:46.776Z,5.00
2023-05-14T06:56:14.724Z,7.67
2023-05-14T06:58:42.169Z,7.23
2023-05-14T07:01:09.601Z,4.80
2023-05-14T07:03:37.105Z,7.13
2023-05-14T07:06:06.693Z,3.93
2023-05-14T07:08:34.099Z,5.33
2023-05-14T07:11:01.658Z,7.13
2023-05-14T07:13:29.090Z,4.90
2023-05-14T07:15:56.794Z,4.70
2023-05-14T07:18:24.378Z,4.77
2023-05-14T07:20:51.760Z,4.60
2023-05-14T07:23:20.575Z,5.13
2023-05-14T07:25:48.055Z,5.67
2023-05-14T07:28:17.949Z,5.77
2023-05-14T07:30:45.349Z,6.07
2023-05-14T07:33:12.747Z,5.77
2023-05-14T07:35:43.053Z,4.23
2023-05-14T07:38:10.612Z,7.53
2023-05-14T07:40:39.335Z,4.23
2023-05-14T07:43:06.755Z,4.57
2023-05-14T07:45:34.169Z,4.47
2023-05-14T07:48:01.838Z,5.80
2023-05-14T07:50:29.422Z,5.47
2023-05-14T07:52:56.838Z,4.47
2023-05-14T07:55:24.523Z,5.87
2023-05-14T07:57:53.301Z,6.53
2023-05-14T08:00:20.845Z,4.30
2023-05-14T08:02:49.135Z,11.95
2023-05-14T08:05:16.699Z,6.00
2023-05-14T08:07:44.311Z,7.05
2023-05-14T08:10:12.239Z,9.25
2023-05-14T08:12:39.870Z,7.53
2023-05-14T08:15:10.066Z,12.40
2023-05-14T08:17:37.660Z,9.27
2023-05-14T08:20:07.499Z,5.95
2023-05-14T08:22:34.974Z,5.63
2023-05-14T08:25:03.806Z,4.80
2023-05-14T08:27:31.215Z,6.70
2023-05-14T08:29:58.697Z,8.43
2023-05-14T08:32:27.587Z,6.65
2023-05-14T08:34:55.180Z,6.00
2023-05-14T08:37:22.573Z,5.03
2023-05-14T08:39:50.368Z,3.92
2023-05-14T08:42:21.882Z,7.78
2023-05-14T08:44:50.787Z,5.03
2023-05-14T08:47:22.261Z,7.13
2023-05-14T08:49:57.993Z,7.82
2023-05-14T08:52:25.520Z,8.70
2023-05-14T08:54:53.900Z,8.52
2023-05-14T08:57:24.657Z,6.95
2023-05-14T08:59:52.174Z,5.75
2023-05-14T09:02:22.978Z,6.20
2023-05-14T09:04:56.097Z,5.28
2023-05-14T09:07:23.722Z,4.65
2023-05-14T09:09:52.430Z,7.07
2023-05-14T09:12:20.221Z,7.47
2023-05-14T09:14:49.359Z,5.10
2023-05-14T09:17:17.133Z,5.07
2023-05-14T09:19:47.199Z,4.97
2023-05-14T09:22:17.937Z,4.10
2023-05-14T09:24:45.515Z,5.03
2023-05-14T09:27:20.463Z,3.28
2023-05-14T09:29:48.814Z,4.78
2023-05-14T09:32:16.215Z,6.07
2023-05-14T09:34:43.663Z,3.83
2023-05-14T09:37:11.120Z,5.03
2023-05-14T09:39:40.031Z,3.92
2023-05-14T09:42:08.330Z,3.47
2023-05-14T09:44:38.028Z,3.50
2023-05-14T09:47:06.035Z,3.08
2023-05-14T09:49:33.494Z,6.32
2023-05-14T09:52:03.549Z,4.57
2023-05-14T09:54:32.884Z,5.60
2023-05-14T09:57:01.827Z,3.50
2023-05-14T09:59:29.328Z,6.63
2023-05-14T10:01:58.371Z,6.90
2023-05-14T10:04:26.219Z,3.92
2023-05-14T10:06:55.054Z,5.03
2023-05-14T10:09:26.317Z,4.78
2023-05-14T10:11:57.345Z,3.58
2023-05-14T10:14:29.526Z,4.15
2023-05-14T10:16:59.836Z,5.35
2023-05-14T10:19:27.696Z,4.78
2023-05-14T10:22:00.762Z,6.05
2023-05-14T10:24:28.702Z,5.25
2023-05-14T10:26:58.688Z,5.75
2023-05-14T10:29:35.226Z,4.07
2023-05-14T10:32:06.023Z,9.73
2023-05-14T10:34:42.568Z,4.15
2023-05-14T10:37:12.026Z,5.30
2023-05-14T10:39:47.937Z,5.28
2023-05-14T10:42:18.782Z,8.13
2023-05-14T10:44:51.600Z,3.58
2023-05-14T10:47:19.822Z,4.10
2023-05-14T10:49:51.952Z,3.75
2023-05-14T10:52:20.717Z,10.63
2023-05-14T10:54:52.705Z,5.53
2023-05-14T10:57:21.103Z,5.55
2023-05-14T10:59:53.157Z,7.20
2023-05-14T11:02:23.226Z,9.30
2023-05-14T11:04:58.445Z,6.93
2023-05-14T11:07:29.765Z,3.45
2023-05-14T11:10:04.504Z,5.38
2023-05-14T11:12:32.842Z,4.72
2023-05-14T11:15:03.839Z,4.32
2023-05-14T11:17:32.461Z,5.05
2023-05-14T11:20:00.625Z,7.15
2023-05-14T11:22:28.275Z,4.38
2023-05-14T11:24:55.742Z,3.47
2023-05-14T11:27:24.010Z,3.50
2023-05-14T11:29:51.982Z,7.97
2023-05-14T11:32:21.208Z,4.15
2023-05-14T11:34:49.112Z,4.53
2023-05-14T11:37:17.921Z,5.15
2023-05-14T11:39:48.568Z,4.57
2023-05-14T11:42:18.491Z,4.20
2023-05-14T11:44:48.854Z,7.40
2023-05-14T11:47:18.272Z,3.55
2023-05-14T11:49:47.860Z,7.05
2023-05-14T11:52:19.102Z,4.32
2023-05-14T11:54:46.582Z,7.18
2023-05-14T11:57:14.923Z,5.53
2023-05-14T11:59:42.491Z,4.55
2023-05-14T12:02:11.638Z,6.05
2023-05-14T12:04:39.696Z,5.47
2023-05-14T12:07:13.561Z,7.53
2023-05-14T12:09:45.155Z,3.40
2023-05-14T12:12:13.626Z,5.10
2023-05-14T12:14:42.792Z,6.60
2023-05-14T12:17:15.976Z,4.43
2023-05-14T12:19:44.374Z,4.15
2023-05-14T12:22:17.083Z,4.53
2023-05-14T12:24:45.279Z,4.53
2023-05-14T12:27:12.946Z,5.90
2023-05-14T12:29:40.453Z,4.95
2023-05-14T12:32:11.111Z,5.63
2023-05-14T12:34:38.943Z,6.47
2023-05-14T12:37:06.592Z,5.78
2023-05-14T12:39:35.718Z,3.50
2023-05-14T12:42:03.454Z,3.17
2023-05-14T12:44:31.278Z,2.90
2023-05-14T12:46:58.867Z,6.85
2023-05-14T12:49:26.447Z,5.13
2023-05-14T12:52:07.772Z,4.72
2023-05-14T12:54:43.675Z,6.97
2023-05-14T12:57:11.293Z,4.57
2023-05-14T12:59:39.448Z,9.02
2023-05-14T13:02:07.877Z,4.93
2023-05-14T13:04:35.423Z,4.38
2023-05-14T13:07:02.989Z,4.70
2023-05-14T13:09:30.401Z,4.53
2023-05-14T13:11:59.234Z,4.60
2023-05-14T13:14:28.069Z,6.15
2023-05-14T13:16:55.614Z,4.30
2023-05-14T13:19:23.089Z,5.22
2023-05-14T13:21:50.469Z,4.15
2023-05-14T13:24:18.027Z,3.63
2023-05-14T13:26:45.490Z,3.25
2023-05-14T13:29:14.474Z,9.48
2023-05-14T13:31:41.865Z,9.25
2023-05-14T13:34:10.232Z,3.30
2023-05-14T13:36:39.568Z,4.10
2023-05-14T13:39:07.100Z,4.47
2023-05-14T13:41:35.707Z,6.53
2023-05-14T13:44:03.109Z,4.43
2023-05-14T13:46:31.951Z,3.92
2023-05-14T13:48:59.450Z,5.07
2023-05-14T13:51:26.946Z,6.20
2023-05-14T13:56:26.903Z,3.78
2023-05-14T13:58:54.343Z,3.88
2023-05-14T14:01:23.278Z,5.95
2023-05-14T14:03:52.720Z,5.43
2023-05-14T14:06:20.787Z,3.50
2023-05-14T14:08:48.235Z,9.18
2023-05-14T14:11:16.800Z,3.17
2023-05-14T14:13:46.442Z,4.13
2023-05-14T14:16:14.282Z,3.25
2023-05-14T14:18:43.162Z,6.05
2023-05-14T14:21:12.415Z,5.65
2023-05-14T14:23:39.810Z,3.55
2023-05-14T14:26:07.262Z,6.93
2023-05-14T14:28:34.652Z,4.85
2023-05-14T14:31:03.036Z,3.45
2023-05-14T14:33:30.450Z,23.55
2023-05-14T14:35:57.865Z,8.25
2023-05-14T14:38:26.760Z,4.07
2023-05-14T14:40:54.229Z,6.53
2023-05-14T14:43:24.712Z,5.05
2023-05-14T14:45:52.246Z,6.18
2023-05-14T14:48:24.299Z,9.52
2023-05-14T14:50:51.937Z,4.07
2023-05-14T14:53:19.464Z,7.20
2023-05-14T14:55:48.505Z,7.40
2023-05-14T14:58:16.111Z,6.97
2023-05-14T15:00:45.591Z,7.80
2023-05-14T15:03:14.990Z,6.88
2023-05-14T15:05:42.740Z,3.83
2023-05-14T15:08:10.413Z,3.50
2023-05-14T15:10:38.563Z,7.05
2023-05-14T15:13:07.758Z,2.63
2023-05-14T15:15:36.471Z,3.13
2023-05-14T15:18:05.223Z,5.18
2023-05-14T15:20:35.775Z,4.63
2023-05-14T15:23:03.650Z,3.95
2023-05-14T15:25:31.138Z,5.32
2023-05-14T15:27:58.598Z,4.47
2023-05-14T15:30:27.338Z,5.05
2023-05-14T15:32:54.871Z,7.38
2023-05-14T15:35:22.719Z,4.03
2023-05-14T15:37:50.494Z,4.07
2023-05-14T15:40:18.038Z,4.50
2023-05-14T15:42:46.936Z,3.50
2023-05-14T15:45:14.862Z,4.47
2023-05-14T15:47:44.979Z,9.52
2023-05-14T15:50:12.634Z,4.15
2023-05-14T15:52:41.523Z,4.43
2023-05-14T15:55:09.824Z,5.38
2023-05-14T15:57:39.765Z,5.75
2023-05-14T16:00:10.801Z,5.43
2023-05-14T16:02:41.344Z,5.60
2023-05-14T16:05:10.736Z,8.05
2023-05-14T16:07:38.456Z,4.75
2023-05-14T16:10:07.103Z,6.00
2023-05-14T16:12:34.778Z,5.15
2023-05-14T16:15:02.205Z,4.90
2023-05-14T16:17:31.484Z,4.22
2023-05-14T16:19:59.904Z,4.68
2023-05-14T16:22:29.279Z,4.88
2023-05-14T16:24:56.799Z,7.05
2023-05-14T16:27:24.272Z,5.35
2023-05-14T16:29:51.711Z,5.32
2023-05-14T16:32:19.336Z,4.90
2023-05-14T16:34:49.812Z,5.97
2023-05-14T16:37:17.327Z,5.65
2023-05-14T16:39:46.144Z,3.60
2023-05-14T16:42:13.597Z,5.53
2023-05-14T16:44:41.130Z,6.70
2023-05-14T16:47:08.519Z,5.45
2023-05-14T16:49:36.012Z,4.15
2023-05-14T16:52:03.413Z,5.55
2023-05-14T16:54:30.873Z,6.35
2023-05-14T16:56:59.644Z,5.95
2023-05-14T16:59:27.095Z,3.65
2023-05-14T17:01:54.570Z,3.63
2023-05-14T17:04:22.758Z,5.72
2023-05-14T17:06:50.219Z,8.45
2023-05-14T17:09:17.938Z,4.03
2023-05-14T17:11:45.541Z,4.13
2023-05-14T17:14:14.286Z,3.50
2023-05-14T17:16:42.356Z,5.63
2023-05-14T17:19:09.962Z,5.15
2023-05-14T17:21:37.444Z,7.25
2023-05-14T17:24:05.205Z,3.80
2023-05-14T17:26:32.726Z,4.18
2023-05-14T17:29:00.138Z,5.57
2023-05-14T17:31:29.281Z,5.68
2023-05-14T17:33:56.774Z,6.60
2023-05-14T17:36:24.466Z,7.05
2023-05-14T17:38:52.419Z,4.65
2023-05-14T17:41:19.901Z,5.95
2023-05-14T17:43:47.387Z,3.95
2023-05-14T17:46:14.901Z,6.78
2023-05-14T17:48:43.737Z,17.23
2023-05-14T17:51:11.213Z,8.15
2023-05-14T17:53:38.715Z,6.35
2023-05-14T17:56:06.417Z,7.90
2023-05-14T17:58:33.880Z,8.75
2023-05-14T18:01:01.363Z,8.55
2023-05-14T18:03:28.802Z,5.90
2023-05-14T18:05:57.560Z,6.28
2023-05-14T18:08:24.971Z,6.20
2023-05-14T18:10:52.417Z,8.15
2023-05-14T18:13:19.895Z,18.13
2023-05-14T18:15:47.400Z,5.40
2023-05-14T18:18:17.061Z,8.68
2023-05-14T18:20:44.513Z,6.18
2023-05-14T18:23:13.349Z,5.70
2023-05-14T18:25:40.780Z,5.78
2023-05-14T18:28:08.331Z,8.57
2023-05-14T18:30:35.987Z,5.65
2023-05-14T18:33:03.686Z,6.82
2023-05-14T18:35:31.547Z,4.40
2023-05-14T18:37:58.989Z,5.18
2023-05-14T18:40:27.713Z,6.32
2023-05-14T18:42:56.626Z,8.45
2023-05-14T18:45:25.013Z,4.90
2023-05-14T18:47:52.987Z,4.88
2023-05-14T18:50:20.505Z,5.63
2023-05-14T18:52:47.944Z,13.63
2023-05-14T18:55:15.379Z,6.22
2023-05-14T18:57:44.128Z,8.88
2023-05-14T19:00:13.100Z,29.88
2023-05-14T19:02:40.653Z,9.80
2023-05-14T19:05:09.115Z,7.53
2023-05-14T19:07:37.739Z,8.43
2023-05-14T19:10:06.111Z,23.23
2023-05-14T19:12:33.913Z,11.65
2023-05-14T19:15:02.708Z,14.68
2023-05-14T19:17:35.507Z,6.05
2023-05-14T19:20:06.045Z,7.47
2023-05-14T19:22:33.465Z,6.10
2023-05-14T19:25:01.355Z,6.68
2023-05-14T19:27:29.090Z,6.40
2023-05-14T19:29:56.924Z,8.43
2023-05-14T19:32:25.714Z,12.33
2023-05-14T19:34:53.120Z,8.07
2023-05-14T19:37:21.266Z,7.55
2023-05-14T19:39:49.736Z,9.63
2023-05-14T19:42:17.200Z,9.05
2023-05-14T19:44:44.646Z,9.82
2023-05-14T19:47:12.251Z,10.63
2023-05-14T19:49:41.162Z,15.93
2023-05-14T19:52:08.609Z,9.10
2023-05-14T19:54:36.164Z,10.13
2023-05-14T19:57:03.737Z,10.00
2023-05-14T19:59:31.554Z,12.93
2023-05-14T20:01:59.075Z,11.90
2023-05-14T20:04:26.652Z,10.80
2023-05-14T20:06:55.438Z,17.27
2023-05-14T20:09:22.877Z,9.23
2023-05-14T20:11:50.441Z,12.37
2023-05-14T20:14:18.042Z,11.97
2023-05-14T20:16:46.955Z,7.23
2023-05-14T20:19:14.657Z,8.17
2023-05-14T20:21:42.202Z,6.37
2023-05-14T20:24:11.093Z,9.40
2023-05-14T20:26:38.549Z,12.40
2023-05-14T20:29:06.120Z,7.27
2023-05-14T20:31:33.563Z,8.73
2023-05-14T20:34:01.043Z,9.20
2023-05-14T20:36:29.680Z,9.20
2023-05-14T20:38:57.509Z,8.87
2023-05-14T20:41:26.300Z,12.13
2023-05-14T20:43:53.735Z,9.03
2023-05-14T20:46:21.249Z,10.87
2023-05-14T20:48:48.881Z,9.53
2023-05-14T20:51:16.319Z,12.83
2023-05-14T20:53:43.718Z,10.60
2023-05-14T20:56:11.200Z,12.03
2023-05-14T20:58:39.969Z,7.80
2023-05-14T21:01:08.019Z,11.37
2023-05-14T21:03:35.657Z,11.47
2023-05-14T21:06:03.614Z,10.10
2023-05-14T21:08:32.783Z,8.40
2023-05-14T21:11:00.258Z,9.43
2023-05-14T21:13:27.706Z,9.17
2023-05-14T21:15:56.540Z,12.23
2023-05-14T21:18:26.605Z,8.63
2023-05-14T21:20:54.415Z,16.23
2023-05-14T21:23:21.840Z,11.70
2023-05-14T21:25:49.357Z,8.73
2023-05-14T21:28:16.829Z,10.87
2023-05-14T21:30:44.254Z,10.70
2023-05-14T21:33:13.134Z,14.57
2023-05-14T21:35:40.683Z,19.80
2023-05-14T21:38:08.824Z,12.50
2023-05-14T21:40:36.503Z,11.67
2023-05-14T21:43:04.226Z,13.50
2023-05-14T21:45:31.696Z,10.60
2023-05-14T21:47:59.437Z,11.27
2023-05-14T21:50:28.488Z,10.90
2023-05-14T21:52:55.919Z,11.60
2023-05-14T21:55:24.846Z,10.60
2023-05-14T21:57:53.139Z,12.67
2023-05-14T22:00:23.447Z,10.77
2023-05-14T22:02:51.756Z,13.83
2023-05-14T22:05:19.540Z,10.83
2023-05-14T22:07:48.642Z,10.13
2023-05-14T22:10:17.071Z,10.67
2023-05-14T22:12:45.380Z,12.17
2023-05-14T22:15:13.887Z,10.80
2023-05-14T22:17:41.756Z,10.27
2023-05-14T22:20:10.497Z,11.57
2023-05-14T22:22:37.981Z,10.53
2023-05-14T22:25:07.607Z,10.93
2023-05-14T22:27:35.137Z,10.80
2023-05-14T22:30:02.598Z,10.30
2023-05-14T22:32:30.142Z,12.23
2023-05-14T22:34:57.723Z,10.43
2023-05-14T22:37:25.165Z,12.43
2023-05-14T22:39:52.632Z,10.83
2023-05-14T22:42:21.586Z,10.00
2023-05-14T22:44:49.106Z,12.27
2023-05-14T22:47:17.052Z,10.97
2023-05-14T22:49:44.527Z,10.20
2023-05-14T22:52:11.946Z,12.53
2023-05-14T22:54:39.478Z,14.60
2023-05-14T22:57:07.161Z,11.37
2023-05-14T22:59:36.066Z,13.03
2023-05-14T23:02:03.766Z,10.77
2023-05-14T23:04:31.531Z,10.67
2023-05-14T23:06:59.284Z,11.37
2023-05-14T23:09:26.711Z,12.63
2023-05-14T23:11:54.145Z,11.97
2023-05-14T23:14:21.566Z,12.40
2023-05-14T23:16:50.465Z,12.07
2023-05-14T23:19:18.086Z,10.37
2023-05-14T23:21:45.703Z,9.83
2023-05-14T23:24:13.154Z,10.07
2023-05-14T23:26:40.693Z,15.77
2023-05-14T23:29:08.156Z,11.27
2023-05-14T23:31:35.780Z,13.13
2023-05-14T23:34:04.587Z,10.87
2023-05-14T23:36:32.469Z,13.87
2023-05-14T23:39:00.606Z,11.13
2023-05-14T23:41:28.061Z,12.57
2023-05-14T23:43:56.077Z,11.10
2023-05-14T23:46:24.008Z,12.87
2023-05-14T23:48:52.224Z,13.40
2023-05-14T23:51:20.973Z,10.53
2023-05-14T23:53:48.355Z,12.33
2023-05-14T23:56:15.854Z,14.00
2023-05-14T23:58:43.396Z,12.73
